createdAt,value
2018-07-31T00:02:29.950Z,19.34
2018-07-31T00:04:59.143Z,19.34
2018-07-31T00:07:28.417Z,19.34
2018-07-31T00:09:57.739Z,19.41
2018-07-31T00:12:26.990Z,19.41
2018-07-31T00:14:56.178Z,19.46
2018-07-31T00:17:25.826Z,19.52
2018-07-31T00:19:55.018Z,19.37
2018-07-31T00:22:25.138Z,19.18
2018-07-31T00:24:54.362Z,19.30
2018-07-31T00:27:23.554Z,19.32
2018-07-31T00:29:53.237Z,19.23
2018-07-31T00:32:22.447Z,19.13
2018-07-31T00:34:51.618Z,19.08
2018-07-31T00:37:21.928Z,18.86
2018-07-31T00:39:52.051Z,18.76
2018-07-31T00:42:21.952Z,18.79
2018-07-31T00:44:51.575Z,18.86
2018-07-31T00:47:21.246Z,18.90
2018-07-31T00:49:51.083Z,18.97
2018-07-31T00:52:21.311Z,18.95
2018-07-31T00:54:51.523Z,18.80
2018-07-31T00:57:20.847Z,18.66
2018-07-31T00:59:50.050Z,18.69
2018-07-31T01:02:19.299Z,18.76
2018-07-31T01:04:48.963Z,18.79
2018-07-31T01:07:18.179Z,18.66
2018-07-31T01:09:47.356Z,18.70
2018-07-31T01:12:16.551Z,18.67
2018-07-31T01:14:46.050Z,18.65
2018-07-31T01:17:15.262Z,18.61
2018-07-31T01:19:44.446Z,18.64
2018-07-31T01:22:13.663Z,18.72
2018-07-31T01:24:42.854Z,18.80
2018-07-31T01:27:12.866Z,18.74
2018-07-31T01:29:42.071Z,18.70
2018-07-31T01:32:11.250Z,18.52
2018-07-31T01:34:40.572Z,18.52
2018-07-31T01:37:10.046Z,18.72
2018-07-31T01:39:41.120Z,18.69
2018-07-31T01:42:10.831Z,18.52
2018-07-31T01:44:41.109Z,18.55
2018-07-31T01:47:10.643Z,18.75
2018-07-31T01:49:40.204Z,18.65
2018-07-31T01:52:09.772Z,18.56
2018-07-31T01:54:39.939Z,18.52
2018-07-31T01:57:09.447Z,18.56
2018-07-31T01:59:38.763Z,18.54
2018-07-31T02:02:08.382Z,18.42
2018-07-31T02:04:37.599Z,18.39
2018-07-31T02:07:07.239Z,18.40
2018-07-31T02:09:36.471Z,18.27
2018-07-31T02:12:05.655Z,18.17
2018-07-31T02:14:35.247Z,18.21
2018-07-31T02:17:04.639Z,18.23
2018-07-31T02:19:33.843Z,18.20
2018-07-31T02:22:03.034Z,18.03
2018-07-31T02:24:32.271Z,18.07
2018-07-31T02:27:01.683Z,18.03
2018-07-31T02:29:36.439Z,17.88
2018-07-31T02:32:06.000Z,17.99
2018-07-31T02:34:35.619Z,18.01
2018-07-31T02:37:05.150Z,17.91
2018-07-31T02:39:34.634Z,17.79
2018-07-31T02:42:03.863Z,17.72
2018-07-31T02:44:33.054Z,17.73
2018-07-31T02:47:02.685Z,17.79
2018-07-31T02:49:31.924Z,17.91
2018-07-31T02:52:01.156Z,17.94
2018-07-31T02:54:30.415Z,17.67
2018-07-31T02:56:59.859Z,17.63
2018-07-31T02:59:29.304Z,17.83
2018-07-31T03:01:58.472Z,17.79
2018-07-31T03:04:28.242Z,17.68
2018-07-31T03:06:58.127Z,17.71
2018-07-31T03:09:28.336Z,17.75
2018-07-31T03:11:57.846Z,17.80
2018-07-31T03:14:27.638Z,17.53
2018-07-31T03:16:57.399Z,17.43
2018-07-31T03:19:26.623Z,17.47
2018-07-31T03:21:55.821Z,17.53
2018-07-31T03:24:25.011Z,17.60
2018-07-31T03:26:54.890Z,17.65
2018-07-31T03:29:25.959Z,17.52
2018-07-31T03:31:55.939Z,17.55
2018-07-31T03:34:26.171Z,17.55
2018-07-31T03:36:58.559Z,17.41
2018-07-31T03:39:28.371Z,17.39
2018-07-31T03:41:57.715Z,17.54
2018-07-31T03:44:27.319Z,17.62
2018-07-31T03:46:56.691Z,17.46
2018-07-31T03:49:26.210Z,17.28
2018-07-31T03:51:55.778Z,17.33
2018-07-31T03:54:25.002Z,17.42
2018-07-31T03:56:54.171Z,17.43
2018-07-31T03:59:24.330Z,17.26
2018-07-31T04:01:53.507Z,17.32
2018-07-31T04:04:22.770Z,17.36
2018-07-31T04:06:52.267Z,17.23
2018-07-31T04:09:21.842Z,17.09
2018-07-31T04:11:51.047Z,17.01
2018-07-31T04:14:20.568Z,17.07
2018-07-31T04:16:50.465Z,17.21
2018-07-31T04:19:19.659Z,17.42
2018-07-31T04:21:48.815Z,17.47
2018-07-31T04:24:18.227Z,17.61
2018-07-31T04:26:47.427Z,17.66
2018-07-31T04:29:17.482Z,17.73
2018-07-31T04:31:46.674Z,17.79
2018-07-31T04:34:15.863Z,17.79
2018-07-31T04:36:45.490Z,17.83
2018-07-31T04:39:15.370Z,17.96
2018-07-31T04:41:44.630Z,18.00
2018-07-31T04:44:14.208Z,17.92
2018-07-31T04:46:43.510Z,18.03
2018-07-31T04:49:12.839Z,18.07
2018-07-31T04:51:42.046Z,18.00
2018-07-31T04:54:11.239Z,18.08
2018-07-31T04:56:41.594Z,18.06
2018-07-31T04:59:11.490Z,18.15
2018-07-31T05:01:40.950Z,18.22
2018-07-31T05:04:10.926Z,18.31
2018-07-31T05:06:40.323Z,18.51
2018-07-31T05:09:11.091Z,18.54
2018-07-31T05:11:40.451Z,18.61
2018-07-31T05:14:10.671Z,18.68
2018-07-31T05:16:40.179Z,18.82
2018-07-31T05:19:09.475Z,19.02
2018-07-31T05:21:39.394Z,19.11
2018-07-31T05:24:10.298Z,19.34
2018-07-31T05:26:39.474Z,19.44
2018-07-31T05:29:08.679Z,19.62
2018-07-31T05:31:37.887Z,19.80
2018-07-31T05:34:07.315Z,19.98
2018-07-31T05:36:36.786Z,20.17
2018-07-31T05:39:08.843Z,20.30
2018-07-31T05:41:38.509Z,20.56
2018-07-31T05:44:07.706Z,20.79
2018-07-31T05:46:37.906Z,20.96
2018-07-31T05:49:07.173Z,21.22
2018-07-31T05:51:37.094Z,21.39
2018-07-31T05:54:06.292Z,21.86
2018-07-31T05:56:35.504Z,23.23
2018-07-31T05:59:04.700Z,25.15
2018-07-31T06:01:34.299Z,26.38
2018-07-31T06:04:03.506Z,27.36
2018-07-31T06:06:33.010Z,28.07
2018-07-31T06:09:02.552Z,28.79
2018-07-31T06:11:31.736Z,30.01
2018-07-31T06:14:01.526Z,29.74
2018-07-31T06:16:30.690Z,29.56
2018-07-31T06:19:00.294Z,28.71
2018-07-31T06:21:29.691Z,29.55
2018-07-31T06:23:58.850Z,30.19
2018-07-31T06:26:28.071Z,30.27
2018-07-31T06:28:57.256Z,31.81
2018-07-31T06:31:26.475Z,32.81
2018-07-31T06:33:56.250Z,33.40
2018-07-31T06:36:26.247Z,33.11
2018-07-31T06:38:55.454Z,34.20
2018-07-31T06:41:24.943Z,34.26
2018-07-31T06:43:54.238Z,35.24
2018-07-31T06:46:23.442Z,34.39
2018-07-31T06:48:53.406Z,33.49
2018-07-31T06:51:23.104Z,34.41
2018-07-31T06:53:52.670Z,35.08
2018-07-31T06:56:21.884Z,34.13
2018-07-31T06:58:51.071Z,34.38
2018-07-31T07:01:20.271Z,35.59
2018-07-31T07:03:49.444Z,33.76
2018-07-31T07:06:19.690Z,32.69
2018-07-31T07:08:49.121Z,31.86
2018-07-31T07:11:18.743Z,33.42
2018-07-31T07:13:48.339Z,33.67
2018-07-31T07:16:17.810Z,33.95
2018-07-31T07:18:47.446Z,35.68
2018-07-31T07:21:16.783Z,36.65
2018-07-31T07:23:45.954Z,36.50
2018-07-31T07:26:15.167Z,36.99
2018-07-31T07:28:44.629Z,36.81
2018-07-31T07:31:14.510Z,37.66
2018-07-31T07:33:43.732Z,36.24
2018-07-31T07:36:13.375Z,35.04
2018-07-31T07:38:42.906Z,35.41
2018-07-31T07:41:12.766Z,34.11
2018-07-31T07:43:41.978Z,33.60
2018-07-31T07:46:11.198Z,32.40
2018-07-31T07:48:40.375Z,31.09
2018-07-31T07:51:09.569Z,31.68
2018-07-31T07:53:38.730Z,34.97
2018-07-31T07:56:07.990Z,36.68
2018-07-31T07:58:37.371Z,38.09
2018-07-31T08:01:06.975Z,39.19
2018-07-31T08:03:36.156Z,41.04
2018-07-31T08:06:05.395Z,40.23
2018-07-31T08:08:34.562Z,40.39
2018-07-31T08:11:03.803Z,39.26
2018-07-31T08:13:32.971Z,38.22
2018-07-31T08:16:02.194Z,37.25
2018-07-31T08:18:31.367Z,38.90
2018-07-31T08:21:01.337Z,38.03
2018-07-31T08:23:31.062Z,37.68
2018-07-31T08:26:00.563Z,36.44
2018-07-31T08:28:30.219Z,38.45
2018-07-31T08:30:59.399Z,39.11
2018-07-31T08:33:30.195Z,38.71
2018-07-31T08:35:59.342Z,38.68
2018-07-31T08:38:28.891Z,39.81
2018-07-31T08:40:58.434Z,41.15
2018-07-31T08:43:28.148Z,41.69
2018-07-31T08:45:57.371Z,42.96
2018-07-31T08:48:27.191Z,42.39
2018-07-31T08:50:56.374Z,42.49
2018-07-31T08:53:25.592Z,42.91
2018-07-31T08:55:55.147Z,43.91
2018-07-31T08:58:24.739Z,42.06
2018-07-31T09:00:53.922Z,41.40
2018-07-31T09:03:23.108Z,42.76
2018-07-31T09:05:52.283Z,44.11
2018-07-31T09:08:21.560Z,42.60
2018-07-31T09:10:50.637Z,42.79
2018-07-31T09:13:19.819Z,44.72
2018-07-31T09:15:48.965Z,42.02
2018-07-31T09:18:18.120Z,41.39
2018-07-31T09:20:47.282Z,42.85
2018-07-31T09:23:16.458Z,43.74
2018-07-31T09:25:46.171Z,42.85
2018-07-31T09:28:17.330Z,42.49
2018-07-31T09:30:51.953Z,41.44
2018-07-31T09:33:21.638Z,39.91
2018-07-31T09:35:51.974Z,42.45
2018-07-31T09:38:22.131Z,43.34
2018-07-31T09:42:20.815Z,42.66
2018-07-31T09:44:49.949Z,43.60
2018-07-31T09:47:19.119Z,42.86
2018-07-31T09:49:48.503Z,42.77
2018-07-31T09:52:17.663Z,42.11
2018-07-31T09:54:47.047Z,42.45
2018-07-31T09:57:16.639Z,41.77
2018-07-31T09:59:46.047Z,41.30
2018-07-31T10:02:15.232Z,41.12
2018-07-31T10:04:44.408Z,40.02
2018-07-31T10:07:13.956Z,41.18
2018-07-31T10:09:43.527Z,39.20
2018-07-31T10:12:13.323Z,38.20
2018-07-31T10:14:42.995Z,41.40
2018-07-31T10:17:12.539Z,44.11
2018-07-31T10:19:41.787Z,44.88
2018-07-31T10:22:10.962Z,44.78
2018-07-31T10:24:40.568Z,42.11
2018-07-31T10:27:09.807Z,40.57
2018-07-31T10:29:38.987Z,41.58
2018-07-31T10:32:08.195Z,40.82
2018-07-31T10:34:37.390Z,39.72
2018-07-31T10:37:07.058Z,38.20
2018-07-31T10:39:36.503Z,37.91
2018-07-31T10:42:06.431Z,37.94
2018-07-31T10:44:35.902Z,39.78
2018-07-31T10:47:05.122Z,41.53
2018-07-31T10:49:35.128Z,43.62
2018-07-31T10:52:04.427Z,42.85
2018-07-31T10:54:34.640Z,41.31
2018-07-31T10:57:03.869Z,41.21
2018-07-31T10:59:33.422Z,42.80
2018-07-31T11:02:02.543Z,41.75
2018-07-31T11:04:31.728Z,41.66
2018-07-31T11:07:01.139Z,39.47
2018-07-31T11:09:30.564Z,39.52
2018-07-31T11:11:59.890Z,40.49
2018-07-31T11:14:29.095Z,40.27
2018-07-31T11:16:58.286Z,38.84
2018-07-31T11:19:27.805Z,40.19
2018-07-31T11:21:57.279Z,41.69
2018-07-31T11:24:26.479Z,41.17
2018-07-31T11:26:55.695Z,41.68
2018-07-31T11:29:25.738Z,42.80
2018-07-31T11:31:54.919Z,41.02
2018-07-31T11:34:24.438Z,40.33
2018-07-31T11:36:53.676Z,42.25
2018-07-31T11:39:22.903Z,42.29
2018-07-31T11:41:52.117Z,43.81
2018-07-31T11:44:21.360Z,43.70
2018-07-31T11:46:50.923Z,42.29
2018-07-31T11:49:20.114Z,42.53
2018-07-31T11:51:49.991Z,41.63
2018-07-31T11:54:19.231Z,42.60
2018-07-31T11:56:48.739Z,42.42
2018-07-31T11:59:18.246Z,40.19
2018-07-31T12:01:47.565Z,42.16
2018-07-31T12:04:17.415Z,43.07
2018-07-31T12:06:46.975Z,43.19
2018-07-31T12:09:16.239Z,42.67
2018-07-31T12:11:46.632Z,40.86
2018-07-31T12:14:15.963Z,41.87
2018-07-31T12:16:45.899Z,41.31
2018-07-31T12:19:15.426Z,43.26
2018-07-31T12:21:44.619Z,42.04
2018-07-31T12:24:13.803Z,40.22
2018-07-31T12:26:42.983Z,38.98
2018-07-31T12:29:12.182Z,41.32
2018-07-31T12:31:41.362Z,39.69
2018-07-31T12:34:10.607Z,37.79
2018-07-31T12:36:39.798Z,38.24
2018-07-31T12:39:11.135Z,38.15
2018-07-31T12:41:40.383Z,37.48
2018-07-31T12:44:09.675Z,37.58
2018-07-31T12:46:38.971Z,38.91
2018-07-31T12:49:08.179Z,39.76
2018-07-31T12:51:37.630Z,40.05
2018-07-31T12:54:07.246Z,41.60
2018-07-31T12:56:36.437Z,42.35
2018-07-31T12:59:06.066Z,42.34
2018-07-31T13:01:35.470Z,43.56
2018-07-31T13:04:04.707Z,42.71
2018-07-31T13:06:34.154Z,40.71
2018-07-31T13:09:03.755Z,41.44
2018-07-31T13:11:33.434Z,40.85
2018-07-31T13:14:02.657Z,40.88
2018-07-31T13:16:32.379Z,41.43
2018-07-31T13:19:02.056Z,42.33
2018-07-31T13:21:31.655Z,41.56
2018-07-31T13:24:01.339Z,38.12
2018-07-31T13:26:30.559Z,35.76
2018-07-31T13:28:59.755Z,37.82
2018-07-31T13:31:29.178Z,40.05
2018-07-31T13:33:58.655Z,39.91
2018-07-31T13:36:28.174Z,40.48
2018-07-31T13:38:57.711Z,41.11
2018-07-31T13:41:27.352Z,39.76
2018-07-31T13:43:57.149Z,38.40
2018-07-31T13:46:26.255Z,36.59
2018-07-31T13:48:55.684Z,35.30
2018-07-31T13:51:25.208Z,37.65
2018-07-31T13:53:54.707Z,38.88
2018-07-31T13:56:24.497Z,38.44
2018-07-31T13:58:53.875Z,37.14
2018-07-31T14:01:23.307Z,36.29
2018-07-31T14:03:53.383Z,37.48
2018-07-31T14:06:22.607Z,40.37
2018-07-31T14:08:51.833Z,40.68
2018-07-31T14:11:21.980Z,41.61
2018-07-31T14:13:51.553Z,40.76
2018-07-31T14:16:20.726Z,40.18
2018-07-31T14:18:50.258Z,41.60
2018-07-31T14:21:19.439Z,42.06
2018-07-31T14:23:48.642Z,41.96
2018-07-31T14:26:18.162Z,41.31
2018-07-31T14:28:47.338Z,42.01
2018-07-31T14:31:16.552Z,41.66
2018-07-31T14:33:45.775Z,40.66
2018-07-31T14:36:14.983Z,40.41
2018-07-31T14:38:44.326Z,39.63
2018-07-31T14:41:13.749Z,39.58
2018-07-31T14:43:42.950Z,38.31
2018-07-31T14:46:12.591Z,38.38
2018-07-31T14:48:41.763Z,37.83
2018-07-31T14:51:11.375Z,37.98
2018-07-31T14:53:41.507Z,38.53
2018-07-31T14:56:10.724Z,37.92
2018-07-31T14:58:39.902Z,37.34
2018-07-31T15:01:09.815Z,37.23
2018-07-31T15:03:38.976Z,37.34
2018-07-31T15:06:08.208Z,38.07
2018-07-31T15:08:39.119Z,37.68
2018-07-31T15:11:09.836Z,36.73
2018-07-31T15:13:39.555Z,37.18
2018-07-31T15:16:08.814Z,37.06
2018-07-31T15:18:38.092Z,37.08
2018-07-31T15:21:07.362Z,36.55
2018-07-31T15:23:36.823Z,36.78
2018-07-31T15:26:06.263Z,35.93
2018-07-31T15:28:36.138Z,35.26
2018-07-31T15:31:05.784Z,35.61
2018-07-31T15:33:35.241Z,35.96
2018-07-31T15:36:05.230Z,34.68
2018-07-31T15:38:35.425Z,34.82
2018-07-31T15:41:04.643Z,34.46
2018-07-31T15:43:33.816Z,34.31
2018-07-31T15:46:03.019Z,34.79
2018-07-31T15:48:32.184Z,35.32
2018-07-31T15:51:01.820Z,35.53
2018-07-31T15:53:31.369Z,34.09
2018-07-31T15:56:00.572Z,34.15
2018-07-31T15:58:30.427Z,34.29
2018-07-31T16:00:59.623Z,34.14
2018-07-31T16:03:28.791Z,34.26
2018-07-31T16:05:58.511Z,34.07
2018-07-31T16:08:27.874Z,34.55
2018-07-31T16:10:57.358Z,34.45
2018-07-31T16:13:27.441Z,34.32
2018-07-31T16:15:56.938Z,34.43
2018-07-31T16:18:26.214Z,33.89
2018-07-31T16:20:55.395Z,33.84
2018-07-31T16:23:24.876Z,33.30
2018-07-31T16:25:54.369Z,33.56
2018-07-31T16:28:23.711Z,33.69
2018-07-31T16:30:53.256Z,33.89
2018-07-31T16:33:23.799Z,33.70
2018-07-31T16:35:53.448Z,33.36
2018-07-31T16:38:23.031Z,33.05
2018-07-31T16:40:52.743Z,32.85
2018-07-31T16:43:22.152Z,32.80
2018-07-31T16:45:51.354Z,32.97
2018-07-31T16:48:20.528Z,33.02
2018-07-31T16:50:50.167Z,33.00
2018-07-31T16:53:19.683Z,33.14
2018-07-31T16:55:49.644Z,32.67
2018-07-31T16:58:19.270Z,32.50
2018-07-31T17:00:49.176Z,32.42
2018-07-31T17:03:18.476Z,32.45
2018-07-31T17:05:48.486Z,32.67
2018-07-31T17:08:18.283Z,32.73
2018-07-31T17:10:48.128Z,32.62
2018-07-31T17:13:17.514Z,32.17
2018-07-31T17:15:47.021Z,32.39
2018-07-31T17:18:16.223Z,32.13
2018-07-31T17:20:46.040Z,31.99
2018-07-31T17:23:15.239Z,31.73
2018-07-31T17:25:44.434Z,31.73
2018-07-31T17:28:14.879Z,31.70
2018-07-31T17:30:44.359Z,31.95
2018-07-31T17:33:13.914Z,31.63
2018-07-31T17:35:44.065Z,31.75
2018-07-31T17:38:13.248Z,31.64
2018-07-31T17:40:42.410Z,31.62
2018-07-31T17:43:11.843Z,31.68
2018-07-31T17:45:41.219Z,31.66
2018-07-31T17:48:11.415Z,31.32
2018-07-31T17:50:41.202Z,31.37
2018-07-31T17:53:10.459Z,31.24
2018-07-31T17:55:39.703Z,31.11
2018-07-31T17:58:09.276Z,31.05
2018-07-31T18:00:38.462Z,30.75
2018-07-31T18:03:08.179Z,30.68
2018-07-31T18:05:37.443Z,30.41
2018-07-31T18:08:06.853Z,30.12
2018-07-31T18:10:36.037Z,30.04
2018-07-31T18:13:05.839Z,29.88
2018-07-31T18:15:35.003Z,29.71
2018-07-31T18:18:04.186Z,29.78
2018-07-31T18:20:33.686Z,29.64
2018-07-31T18:23:02.883Z,29.64
2018-07-31T18:25:32.155Z,29.63
2018-07-31T18:28:01.437Z,29.46
2018-07-31T18:30:30.598Z,29.21
2018-07-31T18:32:59.780Z,29.08
2018-07-31T18:35:29.605Z,28.92
2018-07-31T18:37:59.686Z,29.01
2018-07-31T18:40:29.163Z,28.82
2018-07-31T18:42:58.450Z,28.71
2018-07-31T18:45:27.808Z,28.70
2018-07-31T18:47:57.037Z,28.65
2018-07-31T18:50:27.926Z,28.46
2018-07-31T18:52:57.114Z,28.40
2018-07-31T18:55:26.280Z,28.42
2018-07-31T18:57:55.438Z,28.42
2018-07-31T19:00:24.603Z,28.23
2018-07-31T19:02:54.447Z,28.13
2018-07-31T19:05:24.931Z,28.16
2018-07-31T19:07:54.380Z,28.00
2018-07-31T19:10:23.862Z,27.94
2018-07-31T19:12:53.258Z,27.74
2018-07-31T19:15:22.464Z,27.73
2018-07-31T19:17:51.666Z,27.54
2018-07-31T19:20:20.847Z,27.48
2018-07-31T19:22:50.739Z,27.22
2018-07-31T19:25:19.920Z,27.11
2018-07-31T19:27:49.112Z,27.16
2018-07-31T19:30:18.617Z,26.94
2018-07-31T19:32:48.419Z,26.83
2018-07-31T19:35:17.595Z,26.69
2018-07-31T19:37:46.770Z,26.60
2018-07-31T19:40:15.963Z,26.57
2018-07-31T19:42:45.521Z,26.49
2018-07-31T19:45:14.880Z,26.45
2018-07-31T19:47:44.059Z,26.45
2018-07-31T19:50:13.506Z,26.29
2018-07-31T19:52:43.379Z,26.21
2018-07-31T19:55:12.547Z,26.09
2018-07-31T19:57:41.748Z,26.08
2018-07-31T20:00:11.015Z,26.14
2018-07-31T20:02:40.459Z,26.03
2018-07-31T20:05:09.672Z,25.90
2018-07-31T20:07:39.447Z,25.78
2018-07-31T20:10:08.648Z,25.68
2018-07-31T20:12:38.067Z,25.52
2018-07-31T20:15:07.387Z,25.33
2018-07-31T20:17:36.524Z,25.27
2018-07-31T20:20:05.851Z,25.15
2018-07-31T20:22:35.074Z,25.06
2018-07-31T20:25:04.794Z,24.95
2018-07-31T20:27:33.978Z,24.96
2018-07-31T20:30:03.164Z,24.87
2018-07-31T20:32:32.682Z,24.72
2018-07-31T20:35:02.051Z,24.60
2018-07-31T20:37:32.367Z,24.54
2018-07-31T20:40:01.816Z,24.58
2018-07-31T20:42:31.151Z,24.54
2018-07-31T20:45:00.456Z,24.27
2018-07-31T20:47:29.655Z,24.18
2018-07-31T20:49:58.806Z,24.01
2018-07-31T20:52:28.464Z,23.93
2018-07-31T20:54:57.567Z,23.93
2018-07-31T20:57:26.771Z,23.96
2018-07-31T20:59:56.231Z,24.02
2018-07-31T21:02:26.119Z,23.78
2018-07-31T21:04:56.570Z,23.72
2018-07-31T21:07:26.443Z,23.47
2018-07-31T21:09:56.255Z,23.42
2018-07-31T21:12:25.436Z,23.28
2018-07-31T21:14:54.894Z,23.19
2018-07-31T21:17:24.231Z,22.99
2018-07-31T21:19:53.663Z,22.89
2018-07-31T21:22:23.623Z,23.14
2018-07-31T21:24:53.214Z,23.07
2018-07-31T21:27:22.790Z,23.10
2018-07-31T21:29:51.980Z,22.92
2018-07-31T21:32:21.230Z,22.91
2018-07-31T21:34:50.623Z,22.94
2018-07-31T21:37:19.787Z,22.93
2018-07-31T21:39:49.719Z,22.81
2018-07-31T21:42:18.920Z,22.81
2018-07-31T21:44:48.159Z,22.91
2018-07-31T21:47:17.322Z,22.87
2018-07-31T21:49:47.375Z,22.76
2018-07-31T21:52:16.926Z,22.54
2018-07-31T21:54:46.615Z,22.60
2018-07-31T21:57:16.012Z,22.50
2018-07-31T21:59:45.606Z,22.29
2018-07-31T22:02:14.803Z,22.09
2018-07-31T22:04:44.306Z,21.88
2018-07-31T22:07:13.699Z,21.76
2018-07-31T22:09:45.366Z,21.88
2018-07-31T22:12:15.099Z,21.85
2018-07-31T22:14:44.303Z,21.89
2018-07-31T22:17:14.473Z,21.68
2018-07-31T22:19:43.679Z,21.79
2018-07-31T22:22:13.185Z,21.75
2018-07-31T22:24:42.776Z,21.78
2018-07-31T22:27:12.146Z,21.92
2018-07-31T22:29:41.415Z,21.79
2018-07-31T22:32:10.976Z,21.65
2018-07-31T22:34:40.609Z,21.65
2018-07-31T22:37:09.804Z,21.59
2018-07-31T22:39:38.995Z,21.54
2018-07-31T22:42:08.620Z,21.26
2018-07-31T22:44:37.795Z,20.79
2018-07-31T22:47:07.390Z,20.61
2018-07-31T22:49:36.584Z,20.54
2018-07-31T22:52:05.743Z,20.76
2018-07-31T22:54:34.971Z,20.86
2018-07-31T22:57:04.144Z,20.90
2018-07-31T22:59:34.956Z,20.83
2018-07-31T23:02:04.563Z,20.54
2018-07-31T23:04:33.763Z,20.37
2018-07-31T23:07:03.462Z,20.32
2018-07-31T23:09:32.691Z,20.23
2018-07-31T23:12:01.912Z,20.38
2018-07-31T23:14:31.171Z,20.35
2018-07-31T23:17:00.342Z,20.46
2018-07-31T23:19:29.867Z,20.27
2018-07-31T23:21:59.047Z,20.17
2018-07-31T23:24:28.339Z,20.10
2018-07-31T23:26:58.411Z,20.13
2018-07-31T23:29:27.584Z,20.12
2018-07-31T23:31:56.763Z,19.86
2018-07-31T23:34:25.966Z,19.48
2018-07-31T23:36:55.163Z,19.53
2018-07-31T23:39:24.375Z,19.71
2018-07-31T23:41:54.219Z,19.68
2018-07-31T23:44:24.816Z,19.70
2018-07-31T23:46:54.319Z,19.86
2018-07-31T23:49:23.940Z,19.79
2018-07-31T23:51:53.111Z,19.74
2018-07-31T23:54:22.315Z,19.69
2018-07-31T23:56:51.536Z,19.51
2018-07-31T23:59:21.648Z,19.43
